VLG64KA LECO-LEPA
Flight info
| Callsign | VLG64KA |
|---|---|
| Flight time | 1h 39m |
| Altitude | 33000 |
| Route | ROXER DCT SUSOS/N0444F340 N725 BCN/N0443F330 N859 TOLSO |
| Aircraft | A321/M-SDE3FGHIRWY/LB1 |
Departure
| Time | 2026-04-25 14:05 |
|---|---|
| Airport | A Coruña Airport (LECO) |
Arrival
| Time | 2026-04-25 15:44 |
|---|---|
| Airport | Palma de Mallorca Airport (LEPA) |
| Time | Latitude | Longitude | Altitude | Speed | Heading |
|---|---|---|---|---|---|
| 2026-04-25 13:44 | 43.30247 | -8.38010 | 336 ft | 0 kts | 301° |
| 2026-04-25 13:58 | 43.30247 | -8.38009 | 336 ft | 1 kts | 301° |
| 2026-04-25 13:58 | 43.30233 | -8.37984 | 336 ft | 4 kts | 322° |
| 2026-04-25 13:58 | 43.30211 | -8.37971 | 337 ft | 4 kts | 11° |
| 2026-04-25 13:58 | 43.30199 | -8.37976 | 336 ft | 0 kts | 31° |
| 2026-04-25 14:01 | 43.30202 | -8.37974 | 341 ft | 1 kts | 31° |
| 2026-04-25 14:01 | 43.30216 | -8.37962 | 338 ft | 3 kts | 31° |
| 2026-04-25 14:01 | 43.30242 | -8.37941 | 339 ft | 5 kts | 31° |
| 2026-04-25 14:01 | 43.30264 | -8.37880 | 340 ft | 10 kts | 90° |
| 2026-04-25 14:02 | 43.30223 | -8.37766 | 337 ft | 16 kts | 139° |
| 2026-04-25 14:02 | 43.30107 | -8.37806 | 350 ft | 22 kts | 212° |
| 2026-04-25 14:02 | 43.29961 | -8.37925 | 354 ft | 27 kts | 210° |
| 2026-04-25 14:02 | 43.29905 | -8.37970 | 346 ft | 29 kts | 210° |
| 2026-04-25 14:03 | 43.29567 | -8.38243 | 334 ft | 37 kts | 211° |
| 2026-04-25 14:03 | 43.29344 | -8.38428 | 335 ft | 34 kts | 211° |
| 2026-04-25 14:03 | 43.29235 | -8.38583 | 336 ft | 21 kts | 228° |
| 2026-04-25 14:03 | 43.29188 | -8.38560 | 336 ft | 6 kts | 95° |
| 2026-04-25 14:04 | 43.29221 | -8.38531 | 339 ft | 7 kts | 18° |
| 2026-04-25 14:04 | 43.29270 | -8.38495 | 337 ft | 10 kts | 34° |
| 2026-04-25 14:04 | 43.29501 | -8.38303 | 336 ft | 77 kts | 31° |
| 2026-04-25 14:04 | 43.30163 | -8.37761 | 354 ft | 142 kts | 30° |
| 2026-04-25 14:05 | 43.31065 | -8.37023 | 882 ft | 150 kts | 28° |
| 2026-04-25 14:05 | 43.31887 | -8.36135 | 1727 ft | 153 kts | 41° |
| 2026-04-25 14:05 | 43.32552 | -8.34917 | 2149 ft | 171 kts | 58° |
| 2026-04-25 14:05 | 43.33006 | -8.33293 | 2368 ft | 194 kts | 72° |
| 2026-04-25 14:06 | 43.33384 | -8.31401 | 2781 ft | 213 kts | 73° |
| 2026-04-25 14:06 | 43.33786 | -8.29435 | 3556 ft | 213 kts | 74° |
| 2026-04-25 14:06 | 43.34191 | -8.27464 | 4270 ft | 216 kts | 74° |
| 2026-04-25 14:06 | 43.34606 | -8.25456 | 4930 ft | 222 kts | 74° |
| 2026-04-25 14:07 | 43.35032 | -8.23397 | 5602 ft | 225 kts | 75° |
| 2026-04-25 14:07 | 43.35463 | -8.21311 | 6248 ft | 229 kts | 75° |
| 2026-04-25 14:07 | 43.35901 | -8.19183 | 6868 ft | 233 kts | 75° |
| 2026-04-25 14:07 | 43.36342 | -8.17019 | 7554 ft | 236 kts | 77° |
| 2026-04-25 14:08 | 43.36504 | -8.14767 | 8277 ft | 240 kts | 94° |
| 2026-04-25 14:08 | 43.36192 | -8.12421 | 8621 ft | 262 kts | 105° |
| 2026-04-25 14:08 | 43.35696 | -8.09903 | 8986 ft | 282 kts | 105° |
| 2026-04-25 14:08 | 43.35182 | -8.07265 | 9657 ft | 289 kts | 105° |
| 2026-04-25 14:09 | 43.34662 | -8.04575 | 10368 ft | 295 kts | 105° |
| 2026-04-25 14:09 | 43.34125 | -8.01785 | 10619 ft | 317 kts | 105° |
| 2026-04-25 14:09 | 43.33533 | -7.98704 | 10794 ft | 341 kts | 105° |
| 2026-04-25 14:09 | 43.33336 | -7.97673 | 10844 ft | 348 kts | 105° |
| 2026-04-25 14:10 | 43.32287 | -7.92179 | 11681 ft | 363 kts | 105° |
| 2026-04-25 14:10 | 43.31642 | -7.88801 | 12340 ft | 368 kts | 105° |
| 2026-04-25 14:10 | 43.30985 | -7.85372 | 13031 ft | 372 kts | 105° |
| 2026-04-25 14:10 | 43.30324 | -7.81926 | 13730 ft | 375 kts | 107° |
| 2026-04-25 14:11 | 43.29654 | -7.78443 | 14359 ft | 379 kts | 107° |
| 2026-04-25 14:11 | 43.28973 | -7.74932 | 14972 ft | 383 kts | 106° |
| 2026-04-25 14:11 | 43.28282 | -7.71384 | 15618 ft | 386 kts | 105° |
| 2026-04-25 14:11 | 43.27822 | -7.69029 | 16042 ft | 388 kts | 106° |
| 2026-04-25 14:12 | 43.27119 | -7.65421 | 16679 ft | 391 kts | 106° |
| 2026-04-25 14:12 | 43.26411 | -7.61795 | 17308 ft | 395 kts | 105° |
| 2026-04-25 14:12 | 43.25696 | -7.58146 | 17941 ft | 397 kts | 105° |
| 2026-04-25 14:12 | 43.24976 | -7.54470 | 18561 ft | 400 kts | 105° |
| 2026-04-25 14:13 | 43.24251 | -7.50769 | 19101 ft | 404 kts | 105° |
| 2026-04-25 14:13 | 43.23515 | -7.47031 | 19634 ft | 407 kts | 104° |
| 2026-04-25 14:13 | 43.22774 | -7.43266 | 20173 ft | 410 kts | 105° |
| 2026-04-25 14:13 | 43.22027 | -7.39474 | 20687 ft | 414 kts | 104° |
| 2026-04-25 14:14 | 43.21267 | -7.35651 | 21181 ft | 418 kts | 105° |
| 2026-04-25 14:14 | 43.20416 | -7.31825 | 21673 ft | 421 kts | 107° |
| 2026-04-25 14:14 | 43.19473 | -7.28011 | 22150 ft | 424 kts | 108° |
| 2026-04-25 14:14 | 43.18469 | -7.24191 | 22622 ft | 428 kts | 108° |
| 2026-04-25 14:15 | 43.17439 | -7.20350 | 23071 ft | 431 kts | 109° |
| 2026-04-25 14:15 | 43.16751 | -7.17785 | 23362 ft | 434 kts | 109° |
| 2026-04-25 14:15 | 43.15370 | -7.12560 | 23929 ft | 438 kts | 108° |
| 2026-04-25 14:15 | 43.14346 | -7.08616 | 24306 ft | 441 kts | 108° |
| 2026-04-25 14:16 | 43.13320 | -7.04642 | 24676 ft | 444 kts | 107° |
| 2026-04-25 14:16 | 43.12293 | -7.00642 | 25058 ft | 446 kts | 108° |
| 2026-04-25 14:16 | 43.11266 | -6.96625 | 25439 ft | 449 kts | 108° |
| 2026-04-25 14:16 | 43.10229 | -6.92583 | 25807 ft | 452 kts | 108° |
| 2026-04-25 14:17 | 43.09182 | -6.88516 | 26182 ft | 454 kts | 107° |
| 2026-04-25 14:17 | 43.08127 | -6.84433 | 26568 ft | 456 kts | 108° |
| 2026-04-25 14:17 | 43.07062 | -6.80338 | 26963 ft | 458 kts | 108° |
| 2026-04-25 14:17 | 43.05990 | -6.76228 | 27265 ft | 460 kts | 108° |
| 2026-04-25 14:18 | 43.04910 | -6.72105 | 27609 ft | 462 kts | 108° |
| 2026-04-25 14:18 | 43.03821 | -6.67960 | 27978 ft | 464 kts | 107° |
| 2026-04-25 14:18 | 43.02727 | -6.63797 | 28364 ft | 466 kts | 107° |
| 2026-04-25 14:18 | 43.01627 | -6.59612 | 28732 ft | 469 kts | 107° |
| 2026-04-25 14:19 | 43.00525 | -6.55416 | 29092 ft | 471 kts | 107° |
| 2026-04-25 14:19 | 42.99418 | -6.51200 | 29551 ft | 470 kts | 107° |
| 2026-04-25 14:19 | 42.98317 | -6.47001 | 30061 ft | 469 kts | 107° |
| 2026-04-25 14:19 | 42.97214 | -6.42813 | 30522 ft | 467 kts | 107° |
| 2026-04-25 14:20 | 42.96124 | -6.38694 | 30968 ft | 466 kts | 107° |
| 2026-04-25 14:20 | 42.95381 | -6.35887 | 31253 ft | 465 kts | 107° |
| 2026-04-25 14:20 | 42.93922 | -6.30389 | 31758 ft | 465 kts | 108° |
| 2026-04-25 14:20 | 42.92821 | -6.26240 | 32163 ft | 464 kts | 108° |
| 2026-04-25 14:21 | 42.91722 | -6.22106 | 32601 ft | 463 kts | 108° |
| 2026-04-25 14:21 | 42.90621 | -6.17977 | 33013 ft | 463 kts | 108° |
| 2026-04-25 14:21 | 42.89520 | -6.13863 | 33421 ft | 462 kts | 108° |
| 2026-04-25 14:21 | 42.88418 | -6.09750 | 33820 ft | 461 kts | 108° |
| 2026-04-25 14:22 | 42.87314 | -6.05654 | 34208 ft | 460 kts | 109° |
| 2026-04-25 14:22 | 42.86212 | -6.01561 | 34530 ft | 459 kts | 109° |
| 2026-04-25 14:22 | 42.85114 | -5.97480 | 34875 ft | 458 kts | 109° |
| 2026-04-25 14:22 | 42.84018 | -5.93402 | 35197 ft | 458 kts | 109° |
| 2026-04-25 14:23 | 42.82925 | -5.89336 | 35527 ft | 457 kts | 109° |
| 2026-04-25 14:23 | 42.81828 | -5.85265 | 35860 ft | 457 kts | 109° |
| 2026-04-25 14:23 | 42.80729 | -5.81205 | 36189 ft | 457 kts | 110° |
| 2026-04-25 14:23 | 42.79628 | -5.77155 | 36505 ft | 456 kts | 110° |
| 2026-04-25 14:24 | 42.78527 | -5.73107 | 36814 ft | 456 kts | 110° |
| 2026-04-25 14:24 | 42.77424 | -5.69056 | 37072 ft | 456 kts | 110° |
| 2026-04-25 14:24 | 42.76321 | -5.65008 | 37139 ft | 457 kts | 110° |
| 2026-04-25 14:25 | 42.74105 | -5.56900 | 37128 ft | 457 kts | 110° |
| 2026-04-25 14:25 | 42.71879 | -5.48800 | 37116 ft | 457 kts | 110° |
| 2026-04-25 14:26 | 42.70293 | -5.40467 | 37119 ft | 456 kts | 96° |
| 2026-04-25 14:26 | 42.69562 | -5.31899 | 37125 ft | 456 kts | 96° |
| 2026-04-25 14:27 | 42.68817 | -5.23343 | 37132 ft | 456 kts | 96° |
| 2026-04-25 14:27 | 42.68055 | -5.14769 | 37142 ft | 456 kts | 96° |
| 2026-04-25 14:28 | 42.67281 | -5.06210 | 37141 ft | 457 kts | 96° |
| 2026-04-25 14:28 | 42.66498 | -4.97692 | 37147 ft | 457 kts | 96° |
| 2026-04-25 14:29 | 42.65711 | -4.89061 | 37144 ft | 458 kts | 97° |
| 2026-04-25 14:29 | 42.64923 | -4.80466 | 37149 ft | 459 kts | 97° |
| 2026-04-25 14:30 | 42.64121 | -4.71920 | 37153 ft | 459 kts | 97° |
| 2026-04-25 14:30 | 42.62894 | -4.59007 | 37156 ft | 460 kts | 97° |
| 2026-04-25 14:31 | 42.62075 | -4.50392 | 37156 ft | 460 kts | 98° |
| 2026-04-25 14:31 | 42.61245 | -4.41765 | 37150 ft | 461 kts | 98° |
| 2026-04-25 14:32 | 42.60407 | -4.33123 | 37144 ft | 462 kts | 98° |
| 2026-04-25 14:32 | 42.59563 | -4.24479 | 37153 ft | 462 kts | 98° |
| 2026-04-25 14:33 | 42.58717 | -4.15816 | 37157 ft | 463 kts | 98° |
| 2026-04-25 14:33 | 42.57856 | -4.07171 | 37157 ft | 463 kts | 98° |
| 2026-04-25 14:34 | 42.56982 | -3.98517 | 37155 ft | 463 kts | 98° |
| 2026-04-25 14:34 | 42.56111 | -3.89872 | 37156 ft | 463 kts | 98° |
| 2026-04-25 14:35 | 42.55237 | -3.81228 | 37162 ft | 462 kts | 98° |
| 2026-04-25 14:35 | 42.54352 | -3.72594 | 37160 ft | 462 kts | 98° |
| 2026-04-25 14:36 | 42.53455 | -3.63977 | 37161 ft | 462 kts | 99° |
| 2026-04-25 14:36 | 42.52558 | -3.55358 | 37163 ft | 461 kts | 99° |
| 2026-04-25 14:37 | 42.51660 | -3.46745 | 37163 ft | 461 kts | 99° |
| 2026-04-25 14:37 | 42.50751 | -3.38149 | 37162 ft | 461 kts | 99° |
| 2026-04-25 14:38 | 42.49838 | -3.29558 | 37164 ft | 460 kts | 99° |
| 2026-04-25 14:38 | 42.48919 | -3.20979 | 37162 ft | 460 kts | 99° |
| 2026-04-25 14:39 | 42.47998 | -3.12415 | 37162 ft | 460 kts | 99° |
| 2026-04-25 14:39 | 42.47068 | -3.03837 | 37157 ft | 460 kts | 99° |
| 2026-04-25 14:40 | 42.46127 | -2.95273 | 37159 ft | 459 kts | 99° |
| 2026-04-25 14:40 | 42.45060 | -2.86755 | 37153 ft | 458 kts | 106° |
| 2026-04-25 14:41 | 42.43373 | -2.78513 | 37153 ft | 457 kts | 107° |
| 2026-04-25 14:41 | 42.41664 | -2.70219 | 37146 ft | 457 kts | 107° |
| 2026-04-25 14:42 | 42.40521 | -2.64668 | 37141 ft | 457 kts | 107° |
| 2026-04-25 14:42 | 42.38248 | -2.53634 | 37136 ft | 457 kts | 107° |
| 2026-04-25 14:43 | 42.36529 | -2.45356 | 37133 ft | 457 kts | 107° |
| 2026-04-25 14:43 | 42.34800 | -2.37095 | 37133 ft | 457 kts | 107° |
| 2026-04-25 14:44 | 42.33059 | -2.28835 | 37133 ft | 456 kts | 107° |
| 2026-04-25 14:44 | 42.31323 | -2.20592 | 37137 ft | 456 kts | 107° |
| 2026-04-25 14:45 | 42.29585 | -2.12360 | 37128 ft | 456 kts | 107° |
| 2026-04-25 14:45 | 42.27834 | -2.04127 | 37126 ft | 455 kts | 107° |
| 2026-04-25 14:46 | 42.26079 | -1.95908 | 37115 ft | 455 kts | 107° |
| 2026-04-25 14:46 | 42.24325 | -1.87691 | 37116 ft | 455 kts | 107° |
| 2026-04-25 14:47 | 42.23165 | -1.82257 | 37108 ft | 455 kts | 108° |
| 2026-04-25 14:47 | 42.20811 | -1.71353 | 37109 ft | 454 kts | 108° |
| 2026-04-25 14:48 | 42.19036 | -1.63181 | 37102 ft | 454 kts | 108° |
| 2026-04-25 14:48 | 42.17262 | -1.55016 | 37102 ft | 453 kts | 108° |
| 2026-04-25 14:49 | 42.15480 | -1.46871 | 37101 ft | 452 kts | 108° |
| 2026-04-25 14:49 | 42.13705 | -1.38749 | 37101 ft | 451 kts | 108° |
| 2026-04-25 14:50 | 42.11933 | -1.30645 | 37103 ft | 451 kts | 108° |
| 2026-04-25 14:50 | 42.10145 | -1.22550 | 37097 ft | 450 kts | 108° |
| 2026-04-25 14:51 | 42.08356 | -1.14473 | 37093 ft | 450 kts | 108° |
| 2026-04-25 14:51 | 42.06570 | -1.06402 | 37093 ft | 450 kts | 108° |
| 2026-04-25 14:52 | 42.05075 | -0.99694 | 37092 ft | 450 kts | 108° |
| 2026-04-25 14:52 | 42.03578 | -0.92981 | 37093 ft | 450 kts | 108° |
| 2026-04-25 14:53 | 42.01465 | -0.83566 | 37093 ft | 450 kts | 108° |
| 2026-04-25 14:53 | 41.99658 | -0.75559 | 37094 ft | 450 kts | 108° |
| 2026-04-25 14:54 | 41.97832 | -0.67497 | 37098 ft | 450 kts | 108° |
| 2026-04-25 14:54 | 41.95997 | -0.59446 | 37104 ft | 451 kts | 108° |
| 2026-04-25 14:55 | 41.94158 | -0.51389 | 37108 ft | 451 kts | 108° |
| 2026-04-25 14:55 | 41.92309 | -0.43326 | 37114 ft | 451 kts | 108° |
| 2026-04-25 14:56 | 41.90455 | -0.35279 | 37115 ft | 451 kts | 108° |
| 2026-04-25 14:56 | 41.88601 | -0.27223 | 37114 ft | 451 kts | 108° |
| 2026-04-25 14:57 | 41.86750 | -0.19180 | 37111 ft | 451 kts | 108° |
| 2026-04-25 14:57 | 41.84897 | -0.11188 | 37104 ft | 451 kts | 108° |
| 2026-04-25 14:58 | 41.83029 | -0.03155 | 37094 ft | 451 kts | 108° |
| 2026-04-25 14:58 | 41.81158 | 0.04874 | 37088 ft | 451 kts | 108° |
| 2026-04-25 14:59 | 41.79276 | 0.12902 | 37091 ft | 452 kts | 108° |
| 2026-04-25 14:59 | 41.77382 | 0.20929 | 37092 ft | 452 kts | 108° |
| 2026-04-25 15:00 | 41.75485 | 0.28943 | 37095 ft | 452 kts | 108° |
| 2026-04-25 15:00 | 41.73582 | 0.36963 | 37100 ft | 452 kts | 108° |
| 2026-04-25 15:01 | 41.71677 | 0.44983 | 37102 ft | 452 kts | 108° |
| 2026-04-25 15:01 | 41.69764 | 0.52999 | 37102 ft | 452 kts | 108° |
| 2026-04-25 15:02 | 41.67841 | 0.61016 | 37102 ft | 452 kts | 109° |
| 2026-04-25 15:02 | 41.65912 | 0.69016 | 37101 ft | 452 kts | 109° |
| 2026-04-25 15:03 | 41.63893 | 0.76929 | 37098 ft | 452 kts | 110° |
| 2026-04-25 15:03 | 41.61788 | 0.84851 | 37100 ft | 452 kts | 110° |
| 2026-04-25 15:04 | 41.59694 | 0.92778 | 37110 ft | 452 kts | 110° |
| 2026-04-25 15:04 | 41.57616 | 1.00707 | 37111 ft | 452 kts | 110° |
| 2026-04-25 15:05 | 41.55531 | 1.08635 | 37119 ft | 452 kts | 110° |
| 2026-04-25 15:06 | 41.52526 | 1.20560 | 37113 ft | 452 kts | 108° |
| 2026-04-25 15:06 | 41.50726 | 1.28612 | 37126 ft | 453 kts | 107° |
| 2026-04-25 15:07 | 41.48917 | 1.36650 | 37127 ft | 453 kts | 108° |
| 2026-04-25 15:07 | 41.47058 | 1.44674 | 37132 ft | 453 kts | 108° |
| 2026-04-25 15:08 | 41.45186 | 1.52635 | 37130 ft | 453 kts | 108° |
| 2026-04-25 15:08 | 41.43303 | 1.60650 | 37132 ft | 453 kts | 108° |
| 2026-04-25 15:09 | 41.41417 | 1.68663 | 37135 ft | 453 kts | 108° |
| 2026-04-25 15:09 | 41.38422 | 1.80602 | 37135 ft | 453 kts | 109° |
| 2026-04-25 15:10 | 41.36377 | 1.88541 | 37131 ft | 453 kts | 110° |
| 2026-04-25 15:11 | 41.33328 | 2.00460 | 37119 ft | 453 kts | 114° |
| 2026-04-25 15:11 | 41.30026 | 2.07507 | 37132 ft | 449 kts | 134° |
| 2026-04-25 15:12 | 41.25055 | 2.12411 | 37130 ft | 445 kts | 156° |
| 2026-04-25 15:12 | 41.22165 | 2.13848 | 37128 ft | 444 kts | 166° |
| 2026-04-25 15:12 | 41.18174 | 2.15262 | 37129 ft | 444 kts | 166° |
| 2026-04-25 15:13 | 41.07229 | 2.19143 | 37140 ft | 445 kts | 166° |
| 2026-04-25 15:14 | 41.01252 | 2.21267 | 37147 ft | 445 kts | 166° |
| 2026-04-25 15:14 | 40.95269 | 2.23387 | 36810 ft | 445 kts | 166° |
| 2026-04-25 15:14 | 40.92280 | 2.24439 | 36202 ft | 445 kts | 165° |
| 2026-04-25 15:15 | 40.89279 | 2.25493 | 35520 ft | 447 kts | 166° |
| 2026-04-25 15:15 | 40.86266 | 2.26552 | 34778 ft | 450 kts | 165° |
| 2026-04-25 15:15 | 40.83225 | 2.27627 | 33965 ft | 455 kts | 165° |
| 2026-04-25 15:15 | 40.80150 | 2.28716 | 33071 ft | 459 kts | 165° |
| 2026-04-25 15:16 | 40.77064 | 2.29807 | 32236 ft | 461 kts | 165° |
| 2026-04-25 15:16 | 40.73949 | 2.30906 | 31322 ft | 465 kts | 164° |
| 2026-04-25 15:16 | 40.67637 | 2.33120 | 29340 ft | 473 kts | 165° |
| 2026-04-25 15:17 | 40.61234 | 2.35355 | 27266 ft | 478 kts | 165° |
| 2026-04-25 15:17 | 40.58039 | 2.36468 | 26648 ft | 472 kts | 165° |
| 2026-04-25 15:17 | 40.54872 | 2.37571 | 25943 ft | 468 kts | 165° |
| 2026-04-25 15:18 | 40.51774 | 2.38654 | 25256 ft | 464 kts | 165° |
| 2026-04-25 15:18 | 40.45584 | 2.40810 | 23878 ft | 456 kts | 165° |
| 2026-04-25 15:18 | 40.42528 | 2.41879 | 23122 ft | 453 kts | 164° |
| 2026-04-25 15:19 | 40.39504 | 2.42940 | 22459 ft | 447 kts | 164° |
| 2026-04-25 15:19 | 40.38490 | 2.43295 | 22229 ft | 445 kts | 164° |
| 2026-04-25 15:19 | 40.33566 | 2.45006 | 21141 ft | 435 kts | 164° |
| 2026-04-25 15:19 | 40.30659 | 2.46013 | 20514 ft | 430 kts | 164° |
| 2026-04-25 15:20 | 40.27792 | 2.47006 | 20196 ft | 418 kts | 164° |
| 2026-04-25 15:20 | 40.25951 | 2.47646 | 20106 ft | 408 kts | 163° |
| 2026-04-25 15:20 | 40.22562 | 2.49485 | 20133 ft | 382 kts | 149° |
| 2026-04-25 15:20 | 40.20441 | 2.51421 | 20132 ft | 363 kts | 138° |
| 2026-04-25 15:21 | 40.18714 | 2.53662 | 20108 ft | 346 kts | 129° |
| 2026-04-25 15:21 | 40.17312 | 2.56167 | 19768 ft | 340 kts | 120° |
| 2026-04-25 15:21 | 40.16125 | 2.58863 | 19175 ft | 344 kts | 118° |
| 2026-04-25 15:21 | 40.14926 | 2.61614 | 18374 ft | 354 kts | 118° |
| 2026-04-25 15:22 | 40.13686 | 2.64448 | 17386 ft | 365 kts | 118° |
| 2026-04-25 15:22 | 40.12414 | 2.67336 | 16799 ft | 365 kts | 118° |
| 2026-04-25 15:22 | 40.11143 | 2.70202 | 16673 ft | 363 kts | 118° |
| 2026-04-25 15:22 | 40.09899 | 2.72999 | 16538 ft | 349 kts | 118° |
| 2026-04-25 15:23 | 40.08704 | 2.75683 | 16406 ft | 335 kts | 118° |
| 2026-04-25 15:23 | 40.07552 | 2.78268 | 16278 ft | 323 kts | 118° |
| 2026-04-25 15:23 | 40.06437 | 2.80771 | 16058 ft | 314 kts | 118° |
| 2026-04-25 15:23 | 40.05372 | 2.83162 | 15938 ft | 296 kts | 118° |
| 2026-04-25 15:24 | 40.04380 | 2.85394 | 15795 ft | 280 kts | 118° |
| 2026-04-25 15:24 | 40.03422 | 2.87547 | 15548 ft | 271 kts | 118° |
| 2026-04-25 15:24 | 40.02486 | 2.89650 | 15255 ft | 266 kts | 118° |
| 2026-04-25 15:24 | 40.02173 | 2.90353 | 15180 ft | 264 kts | 117° |
| 2026-04-25 15:25 | 40.00654 | 2.93764 | 14746 ft | 260 kts | 117° |
| 2026-04-25 15:25 | 39.99747 | 2.95796 | 14468 ft | 258 kts | 117° |
| 2026-04-25 15:25 | 39.98847 | 2.97811 | 14145 ft | 256 kts | 118° |
| 2026-04-25 15:25 | 39.97956 | 2.99820 | 13788 ft | 255 kts | 117° |
| 2026-04-25 15:26 | 39.97074 | 3.01823 | 13315 ft | 255 kts | 117° |
| 2026-04-25 15:26 | 39.96401 | 3.03924 | 12827 ft | 250 kts | 95° |
| 2026-04-25 15:26 | 39.96405 | 3.06158 | 12565 ft | 243 kts | 84° |
| 2026-04-25 15:26 | 39.96564 | 3.08294 | 12431 ft | 231 kts | 82° |
| 2026-04-25 15:27 | 39.96730 | 3.10332 | 12297 ft | 221 kts | 82° |
| 2026-04-25 15:27 | 39.96890 | 3.12276 | 12127 ft | 212 kts | 82° |
| 2026-04-25 15:27 | 39.97202 | 3.16062 | 11542 ft | 209 kts | 82° |
| 2026-04-25 15:28 | 39.97358 | 3.17944 | 11240 ft | 208 kts | 82° |
| 2026-04-25 15:28 | 39.97514 | 3.19815 | 10934 ft | 207 kts | 82° |
| 2026-04-25 15:28 | 39.97673 | 3.21681 | 10634 ft | 207 kts | 82° |
| 2026-04-25 15:28 | 39.97832 | 3.23540 | 10347 ft | 206 kts | 83° |
| 2026-04-25 15:29 | 39.97985 | 3.25388 | 10079 ft | 204 kts | 83° |
| 2026-04-25 15:29 | 39.98139 | 3.27207 | 9745 ft | 204 kts | 82° |
| 2026-04-25 15:29 | 39.98298 | 3.29043 | 9418 ft | 204 kts | 82° |
| 2026-04-25 15:29 | 39.98459 | 3.30871 | 9120 ft | 202 kts | 82° |
| 2026-04-25 15:30 | 39.98613 | 3.32686 | 8821 ft | 200 kts | 82° |
| 2026-04-25 15:30 | 39.98767 | 3.34488 | 8510 ft | 200 kts | 82° |
| 2026-04-25 15:30 | 39.98922 | 3.36286 | 8189 ft | 200 kts | 82° |
| 2026-04-25 15:30 | 39.98996 | 3.38087 | 7879 ft | 199 kts | 100° |
| 2026-04-25 15:31 | 39.98357 | 3.39660 | 7582 ft | 201 kts | 136° |
| 2026-04-25 15:31 | 39.97097 | 3.40398 | 7294 ft | 203 kts | 174° |
| 2026-04-25 15:31 | 39.95712 | 3.40077 | 6990 ft | 205 kts | 198° |
| 2026-04-25 15:31 | 39.94390 | 3.39376 | 6697 ft | 204 kts | 201° |
| 2026-04-25 15:32 | 39.93089 | 3.38636 | 6407 ft | 204 kts | 201° |
| 2026-04-25 15:32 | 39.91800 | 3.37885 | 6111 ft | 202 kts | 202° |
| 2026-04-25 15:32 | 39.90520 | 3.37143 | 6023 ft | 201 kts | 202° |
| 2026-04-25 15:33 | 39.87955 | 3.35668 | 6030 ft | 203 kts | 202° |
| 2026-04-25 15:33 | 39.86702 | 3.34827 | 6020 ft | 204 kts | 219° |
| 2026-04-25 15:33 | 39.85734 | 3.33473 | 6035 ft | 206 kts | 230° |
| 2026-04-25 15:33 | 39.84863 | 3.31984 | 6034 ft | 207 kts | 232° |
| 2026-04-25 15:34 | 39.84018 | 3.30500 | 6028 ft | 206 kts | 232° |
| 2026-04-25 15:34 | 39.83168 | 3.29009 | 6027 ft | 205 kts | 231° |
| 2026-04-25 15:34 | 39.82315 | 3.27513 | 6032 ft | 205 kts | 232° |
| 2026-04-25 15:34 | 39.82028 | 3.27013 | 6028 ft | 205 kts | 232° |
| 2026-04-25 15:35 | 39.79761 | 3.23052 | 6030 ft | 206 kts | 232° |
| 2026-04-25 15:35 | 39.78909 | 3.21558 | 6028 ft | 205 kts | 232° |
| 2026-04-25 15:35 | 39.78064 | 3.20080 | 5881 ft | 203 kts | 232° |
| 2026-04-25 15:36 | 39.76379 | 3.17124 | 5256 ft | 202 kts | 231° |
| 2026-04-25 15:36 | 39.75491 | 3.15714 | 5054 ft | 200 kts | 227° |
| 2026-04-25 15:36 | 39.74583 | 3.14342 | 5024 ft | 200 kts | 227° |
| 2026-04-25 15:37 | 39.73682 | 3.12990 | 5027 ft | 200 kts | 227° |
| 2026-04-25 15:37 | 39.72766 | 3.11616 | 5031 ft | 201 kts | 227° |
| 2026-04-25 15:37 | 39.71809 | 3.10289 | 5027 ft | 202 kts | 226° |
| 2026-04-25 15:37 | 39.70946 | 3.08848 | 5030 ft | 202 kts | 233° |
| 2026-04-25 15:38 | 39.70179 | 3.07306 | 5029 ft | 203 kts | 237° |
| 2026-04-25 15:38 | 39.69440 | 3.05740 | 5026 ft | 204 kts | 236° |
| 2026-04-25 15:38 | 39.68702 | 3.04165 | 4881 ft | 203 kts | 237° |
| 2026-04-25 15:38 | 39.68216 | 3.03127 | 4722 ft | 203 kts | 238° |
| 2026-04-25 15:39 | 39.67485 | 3.01566 | 4466 ft | 202 kts | 237° |
| 2026-04-25 15:39 | 39.66759 | 3.00017 | 4203 ft | 200 kts | 238° |
| 2026-04-25 15:39 | 39.66037 | 2.98477 | 3939 ft | 199 kts | 238° |
| 2026-04-25 15:39 | 39.65317 | 2.96941 | 3674 ft | 199 kts | 238° |
| 2026-04-25 15:40 | 39.64602 | 2.95419 | 3418 ft | 196 kts | 239° |
| 2026-04-25 15:40 | 39.64123 | 2.94397 | 3230 ft | 195 kts | 239° |
| 2026-04-25 15:40 | 39.63203 | 2.92440 | 2918 ft | 188 kts | 238° |
| 2026-04-25 15:40 | 39.62525 | 2.90994 | 2641 ft | 182 kts | 236° |
| 2026-04-25 15:41 | 39.61888 | 2.89639 | 2392 ft | 176 kts | 237° |
| 2026-04-25 15:41 | 39.61259 | 2.88302 | 2157 ft | 172 kts | 235° |
| 2026-04-25 15:41 | 39.60644 | 2.86996 | 1953 ft | 168 kts | 237° |
| 2026-04-25 15:41 | 39.60038 | 2.85707 | 1717 ft | 166 kts | 235° |
| 2026-04-25 15:42 | 39.59452 | 2.84464 | 1496 ft | 158 kts | 236° |
| 2026-04-25 15:42 | 39.58900 | 2.83290 | 1298 ft | 148 kts | 237° |
| 2026-04-25 15:42 | 39.58378 | 2.82184 | 1104 ft | 141 kts | 237° |
| 2026-04-25 15:42 | 39.57874 | 2.81114 | 926 ft | 137 kts | 236° |
| 2026-04-25 15:43 | 39.57390 | 2.80088 | 742 ft | 131 kts | 237° |
| 2026-04-25 15:43 | 39.56905 | 2.79074 | 586 ft | 133 kts | 238° |
| 2026-04-25 15:43 | 39.56428 | 2.78051 | 399 ft | 132 kts | 238° |
| 2026-04-25 15:43 | 39.55965 | 2.77046 | 225 ft | 129 kts | 240° |
| 2026-04-25 15:44 | 39.55504 | 2.76070 | 61 ft | 126 kts | 238° |
| 2026-04-25 15:44 | 39.55077 | 2.75174 | 30 ft | 100 kts | 238° |
| 2026-04-25 15:44 | 39.54801 | 2.74596 | 34 ft | 52 kts | 238° |
| 2026-04-25 15:44 | 39.54637 | 2.74247 | 37 ft | 41 kts | 239° |
| 2026-04-25 15:45 | 39.54553 | 2.73947 | 35 ft | 26 kts | 266° |
| 2026-04-25 15:45 | 39.54550 | 2.73799 | 36 ft | 13 kts | 271° |
| 2026-04-25 15:45 | 39.54561 | 2.73690 | 36 ft | 11 kts | 295° |
| 2026-04-25 15:45 | 39.54596 | 2.73637 | 36 ft | 10 kts | 317° |
| 2026-04-25 15:46 | 39.54623 | 2.73575 | 34 ft | 7 kts | 292° |
| 2026-04-25 15:46 | 39.54656 | 2.73525 | 36 ft | 8 kts | 323° |
| 2026-04-25 15:46 | 39.54702 | 2.73489 | 36 ft | 3 kts | 329° |
| 2026-04-25 15:46 | 39.54703 | 2.73488 | 36 ft | 3 kts | 328° |
| 2026-04-25 15:47 | 39.54716 | 2.73474 | 36 ft | 2 kts | 306° |
| 2026-04-25 15:47 | 39.54710 | 2.73447 | 36 ft | 4 kts | 235° |
| 2026-04-25 15:48 | 39.54692 | 2.73407 | 36 ft | 6 kts | 239° |
| 2026-04-25 15:48 | 39.54688 | 2.73398 | 36 ft | 0 kts | 238° |